Time;durP1;ratioP1;P1;durP2;ratioP2;P2;SDS_P1;SDS_P2;PMS_P1;PMS_P2;Temp;Humidity;BMP_temperature;BMP_pressure;BME280_temperature;BME280_humidity;BME280_pressure;Samples;Min_cycle;Max_cycle;Signal;HPM_P1;HPM_P2
2022/11/20 00:00:12;;;;;;;8.48;3.00;;;;;;;7.81;100.00;97730.38;5116449;28;20051;-94
2022/11/20 00:02:38;;;;;;;3.80;2.05;;;;;;;7.97;100.00;97751.91;5115646;28;20074;-93
2022/11/20 00:05:05;;;;;;;2.25;1.67;;;;;;;7.97;100.00;97746.63;5116485;28;20040;-94
2022/11/20 00:07:32;;;;;;;3.85;2.15;;;;;;;7.84;100.00;97726.75;5116688;28;20043;-94
2022/11/20 00:09:58;;;;;;;6.18;2.85;;;;;;;7.90;100.00;97736.28;5116240;28;20090;-93
2022/11/20 00:12:24;;;;;;;6.60;3.38;;;;;;;7.87;100.00;97731.97;5116752;28;20078;-94
2022/11/20 00:14:50;;;;;;;5.97;3.42;;;;;;;7.84;100.00;97734.69;5116159;28;20050;-94
2022/11/20 00:17:16;;;;;;;7.63;3.70;;;;;;;7.94;100.00;97752.03;5116481;28;20520;-94
2022/11/20 00:19:42;;;;;;;7.47;3.70;;;;;;;7.84;100.00;97744.44;5117284;28;20044;-94
2022/11/20 00:22:08;;;;;;;5.32;3.00;;;;;;;7.83;100.00;97748.88;5116491;28;20043;-94
2022/11/20 00:24:35;;;;;;;5.28;3.17;;;;;;;7.82;100.00;97747.97;5116446;28;20040;-93
2022/11/20 00:27:01;;;;;;;5.90;3.85;;;;;;;7.85;100.00;97751.44;5105268;28;20082;-94
2022/11/20 00:29:27;;;;;;;5.07;2.85;;;;;;;7.84;100.00;97745.28;5102758;28;20044;-94
2022/11/20 00:31:52;;;;;;;6.53;3.67;;;;;;;7.81;100.00;97753.34;5102504;28;20059;-95
2022/11/20 00:34:18;;;;;;;6.50;3.03;;;;;;;7.88;100.00;97751.34;5103097;28;20040;-94
2022/11/20 00:36:44;;;;;;;6.20;3.00;;;;;;;7.81;100.00;97751.56;5102296;28;20044;-94
2022/11/20 00:39:10;;;;;;;4.78;2.75;;;;;;;7.87;100.00;97755.81;5102622;28;20554;-95
2022/11/20 00:41:37;;;;;;;4.65;2.80;;;;;;;7.80;100.00;97757.75;5102707;28;20052;-93
2022/11/20 00:44:04;;;;;;;5.45;3.17;;;;;;;7.84;100.00;97765.59;5102288;28;20580;-94
2022/11/20 00:46:30;;;;;;;5.25;3.60;;;;;;;7.79;100.00;97763.13;5102206;28;20071;-94
2022/11/20 00:48:56;;;;;;;5.25;3.83;;;;;;;7.84;100.00;97763.81;5102258;28;20050;-94
2022/11/20 00:51:23;;;;;;;6.35;4.40;;;;;;;7.79;100.00;97763.97;5102251;28;20032;-94
2022/11/20 00:53:49;;;;;;;6.93;4.45;;;;;;;7.79;100.00;97763.97;5102270;28;20972;-95
2022/11/20 00:56:17;;;;;;;6.25;3.92;;;;;;;7.91;100.00;97786.50;5103057;28;20489;-95
2022/11/20 00:58:45;;;;;;;6.03;3.85;;;;;;;7.83;100.00;97775.34;5103181;28;20047;-95
2022/11/20 01:01:14;;;;;;;5.18;3.88;;;;;;;7.81;100.00;97766.56;5102233;28;20044;-96
2022/11/20 01:03:42;;;;;;;5.25;3.65;;;;;;;7.78;100.00;97769.31;5102587;28;20501;-94
2022/11/20 01:06:12;;;;;;;4.97;3.60;;;;;;;7.84;100.00;97779.69;5102272;28;20055;-94
2022/11/20 01:08:39;;;;;;;5.25;3.38;;;;;;;7.85;100.00;97768.22;5100956;28;20051;-95
2022/11/20 01:11:07;;;;;;;5.47;3.40;;;;;;;7.87;100.00;97787.56;5101911;28;20127;-95
2022/11/20 01:13:37;;;;;;;5.00;3.42;;;;;;;7.77;100.00;97772.88;5101694;28;20091;-93
2022/11/20 01:16:06;;;;;;;6.88;3.80;;;;;;;7.77;100.00;97781.69;5101137;28;20497;-94
2022/11/20 01:18:33;;;;;;;5.15;3.72;;;;;;;7.78;100.00;97782.53;5101126;28;20046;-94
2022/11/20 01:21:05;;;;;;;6.45;3.60;;;;;;;7.76;100.00;97781.72;5101541;28;20040;-94
2022/11/20 01:23:32;;;;;;;5.05;3.60;;;;;;;7.80;100.00;97786.00;5101014;28;20578;-96
2022/11/20 01:26:00;;;;;;;6.13;4.03;;;;;;;7.80;100.00;97791.28;5101594;28;20032;-96
2022/11/20 01:28:26;;;;;;;6.30;3.83;;;;;;;7.76;100.00;97794.94;5101272;28;20040;-95
2022/11/20 01:30:52;;;;;;;5.35;3.90;;;;;;;7.87;100.00;97811.38;5100432;28;20052;-94
2022/11/20 01:33:20;;;;;;;5.97;4.03;;;;;;;7.85;100.00;97809.66;5101737;28;20051;-95
2022/11/20 01:35:45;;;;;;;5.88;4.20;;;;;;;7.77;100.00;97805.50;5101377;28;20473;-95
2022/11/20 01:38:11;;;;;;;6.35;3.97;;;;;;;7.87;100.00;97823.72;5100871;28;20050;-96
2022/11/20 01:40:37;;;;;;;6.85;4.45;;;;;;;7.79;100.00;97813.41;5101292;28;20040;-95
2022/11/20 01:43:20;;;;;;;6.90;4.38;;;;;;;7.90;100.00;97827.16;5101922;28;20044;-94
2022/11/20 01:46:02;;;;;;;6.65;4.80;;;;;;;7.83;100.00;97817.69;5085215;28;20032;-96
2022/11/20 01:48:36;;;;;;;7.72;4.80;;;;;;;7.83;100.00;97812.38;5101214;28;20040;-95
2022/11/20 01:51:03;;;;;;;7.25;4.40;;;;;;;7.87;100.00;97819.31;5101990;28;20061;-94
2022/11/20 01:53:32;;;;;;;6.70;4.32;;;;;;;7.84;100.00;97821.19;5118564;28;20052;-95
2022/11/20 01:56:01;;;;;;;7.05;4.43;;;;;;;7.87;100.00;97821.97;5101023;28;20064;-95
2022/11/20 01:58:32;;;;;;;5.75;4.20;;;;;;;7.89;100.00;97819.25;5101336;28;20045;-95
2022/11/20 02:00:58;;;;;;;6.40;4.20;;;;;;;7.90;100.00;97823.66;5100611;28;20040;-96
2022/11/20 02:03:25;;;;;;;6.57;4.30;;;;;;;7.99;100.00;97845.38;5100667;28;20044;-95
2022/11/20 02:05:57;;;;;;;6.20;4.50;;;;;;;7.99;100.00;97850.69;5100697;28;20516;-95
2022/11/20 02:08:23;;;;;;;6.00;3.67;;;;;;;7.84;100.00;97827.34;5100958;28;20040;-95
2022/11/20 02:10:49;;;;;;;5.40;3.83;;;;;;;8.05;100.00;97856.72;5101073;28;20055;-95
2022/11/20 02:16:21;;;;;;;4.30;3.00;;;;;;;7.99;100.00;97847.19;5077706;27;20376;-94
2022/11/20 02:18:47;;;;;;;7.22;3.20;;;;;;;7.98;100.00;97837.47;5076778;28;20044;-93
2022/11/20 02:21:28;;;;;;;5.38;3.30;;;;;;;8.07;100.00;97854.84;5076938;28;20079;-94
2022/11/20 02:24:07;;;;;;;5.78;3.60;;;;;;;7.93;100.00;97829.69;5075761;28;20048;-94
2022/11/20 02:26:38;;;;;;;5.10;3.67;;;;;;;7.90;100.00;97821.88;5076489;28;20147;-93
2022/11/20 02:29:04;;;;;;;6.40;3.20;;;;;;;7.87;100.00;97821.06;5059484;28;20042;-94
2022/11/20 02:31:36;;;;;;;6.00;3.30;;;;;;;7.81;100.00;97819.50;5077206;28;20575;-96
2022/11/20 02:34:02;;;;;;;4.28;3.00;;;;;;;7.95;100.00;97846.41;5076613;28;20053;-94
2022/11/20 02:36:30;;;;;;;4.55;2.95;;;;;;;7.86;100.00;97827.31;5076335;28;20127;-94
2022/11/20 02:38:56;;;;;;;5.43;3.03;;;;;;;7.80;100.00;97817.75;5076584;28;20045;-95
2022/11/20 02:41:30;;;;;;;4.50;3.10;;;;;;;7.95;100.00;97850.84;5076912;28;20074;-94
2022/11/20 02:43:56;;;;;;;4.35;3.05;;;;;;;7.82;100.00;97823.88;5076105;28;20040;-95
2022/11/20 02:46:22;;;;;;;4.22;2.78;;;;;;;7.79;100.00;97823.97;5075673;28;20047;-94
2022/11/20 02:48:48;;;;;;;4.38;2.60;;;;;;;7.82;100.00;97832.69;5077058;28;20068;-95
2022/11/20 02:51:14;;;;;;;4.38;2.72;;;;;;;7.97;100.00;97860.44;5076258;28;20452;-94
2022/11/20 02:53:40;;;;;;;4.00;2.53;;;;;;;7.77;100.00;97824.03;5072555;28;20049;-95
2022/11/20 02:56:07;;;;;;;5.70;2.90;;;;;;;7.80;100.00;97828.34;5074056;28;20052;-95
2022/11/20 02:58:34;;;;;;;5.07;2.90;;;;;;;7.82;100.00;97831.81;5075888;28;20132;-93
2022/11/20 03:01:00;;;;;;;4.45;2.88;;;;;;;7.92;100.00;97851.81;5075643;28;20045;-94
2022/11/20 03:03:26;;;;;;;4.05;2.60;;;;;;;7.82;100.00;97837.97;5075696;28;20048;-94
2022/11/20 03:05:52;;;;;;;4.03;2.55;;;;;;;7.73;100.00;97826.81;5075714;28;20036;-95
2022/11/20 03:08:18;;;;;;;3.65;2.70;;;;;;;7.67;100.00;97832.28;5076505;28;20490;-94
2022/11/20 03:10:43;;;;;;;5.00;2.88;;;;;;;7.64;100.00;97830.59;5076122;28;20075;-93
2022/11/20 03:13:09;;;;;;;5.30;3.40;;;;;;;7.72;100.00;97836.53;5076150;28;20143;-96
2022/11/20 03:15:37;;;;;;;5.35;3.38;;;;;;;7.66;100.00;97826.13;5075251;28;20045;-94
2022/11/20 03:18:03;;;;;;;4.78;3.17;;;;;;;7.73;100.00;97834.75;5075601;28;20510;-94
2022/11/20 03:20:29;;;;;;;5.47;3.28;;;;;;;7.72;100.00;97828.59;5076083;28;20050;-94
2022/11/20 03:22:55;;;;;;;5.20;3.70;;;;;;;7.73;100.00;97829.47;5075642;28;20049;-95
2022/11/20 03:25:22;;;;;;;5.90;4.18;;;;;;;7.77;100.00;97834.59;5071337;28;20470;-95
2022/11/20 03:27:48;;;;;;;6.22;4.15;;;;;;;7.76;100.00;97829.34;5042198;28;20144;-94
2022/11/20 03:30:15;;;;;;;6.57;4.38;;;;;;;7.70;100.00;97824.25;5042571;28;20049;-95
2022/11/20 03:32:42;;;;;;;6.95;4.20;;;;;;;7.72;100.00;97831.25;5052224;28;20494;-94
2022/11/20 03:35:09;;;;;;;6.10;4.40;;;;;;;7.76;100.00;97839.94;5062654;28;20045;-94
2022/11/20 03:37:35;;;;;;;5.50;3.72;;;;;;;7.75;100.00;97843.50;5062403;28;20045;-94
2022/11/20 03:40:01;;;;;;;7.00;5.28;;;;;;;7.77;100.00;97846.97;5062060;28;20044;-94
2022/11/20 03:45:47;;;;;;;8.25;4.97;;;;;;;7.87;100.00;97872.25;5114809;27;20724;-94
2022/11/20 03:48:13;;;;;;;7.57;4.80;;;;;;;7.77;100.00;97860.22;5097335;28;20048;-94
2022/11/20 03:50:39;;;;;;;7.88;5.20;;;;;;;7.64;100.00;97853.56;5096999;28;20063;-94
2022/11/20 03:53:05;;;;;;;8.90;5.47;;;;;;;7.68;100.00;97853.41;5097168;28;20044;-95
2022/11/20 03:55:30;;;;;;;7.95;4.95;;;;;;;7.65;100.00;97845.56;5097494;28;20076;-93
2022/11/20 03:57:56;;;;;;;7.05;4.30;;;;;;;7.65;100.00;97836.75;5096696;28;20148;-94
2022/11/20 04:00:22;;;;;;;6.22;4.10;;;;;;;7.58;100.00;97838.72;5101333;28;20130;-95
2022/11/20 04:02:50;;;;;;;5.78;3.88;;;;;;;7.45;100.00;97832.94;5117130;28;20040;-94
2022/11/20 04:05:16;;;;;;;7.32;4.00;;;;;;;7.59;100.00;97861.63;5117027;28;20040;-94
2022/11/20 04:07:42;;;;;;;5.30;3.50;;;;;;;7.40;100.00;97842.78;5117928;28;20050;-94
2022/11/20 04:10:08;;;;;;;6.15;3.20;;;;;;;7.39;100.00;97844.56;5100282;28;20086;-95
2022/11/20 04:12:34;;;;;;;4.75;3.20;;;;;;;7.32;100.00;97839.50;5097405;28;20044;-95
2022/11/20 04:15:03;;;;;;;6.03;3.15;;;;;;;7.19;100.00;97837.19;5096924;28;20092;-96
2022/11/20 04:17:29;;;;;;;4.50;3.00;;;;;;;7.23;100.00;97863.56;5096760;28;20061;-95
2022/11/20 04:19:56;;;;;;;4.97;2.88;;;;;;;6.94;100.00;97844.97;5097323;28;20055;-93
2022/11/20 04:22:22;;;;;;;4.40;2.80;;;;;;;6.88;100.00;97839.84;5097452;28;20115;-94
2022/11/20 04:24:48;;;;;;;3.90;2.67;;;;;;;6.79;100.00;97845.38;5097287;28;20070;-93
2022/11/20 04:27:14;;;;;;;4.72;2.63;;;;;;;6.65;100.00;97840.44;5097239;28;20048;-93
2022/11/20 04:29:40;;;;;;;3.83;2.20;;;;;;;6.55;100.00;97839.81;5096709;28;20493;-95
2022/11/20 04:32:06;;;;;;;2.75;1.95;;;;;;;6.43;100.00;97852.47;5098266;28;20048;-94
2022/11/20 04:34:32;;;;;;;3.33;1.83;;;;;;;6.31;100.00;97848.34;5098134;28;20075;-95
2022/11/20 04:36:59;;;;;;;3.00;1.70;;;;;;;6.36;100.00;97880.81;5098076;28;20048;-95
2022/11/20 04:39:25;;;;;;;2.80;1.92;;;;;;;6.22;100.00;97862.63;5097970;28;20040;-96
2022/11/20 04:42:28;;;;;;;3.20;2.25;;;;;;;6.31;100.00;97880.94;5098277;28;20044;-93
2022/11/20 04:44:37;;;;;;;2.65;1.63;;;;;;;6.17;100.00;97872.44;5083316;28;20055;-95
2022/11/20 04:47:03;;;;;;;3.65;2.00;;;;;;;6.12;100.00;97882.25;5097986;28;20048;-94
2022/11/20 04:49:29;;;;;;;2.22;1.75;;;;;;;6.03;100.00;97878.06;5098585;28;20052;-95
2022/11/20 04:51:55;;;;;;;2.95;1.95;;;;;;;6.12;100.00;97872.56;5098274;28;20044;-95
2022/11/20 04:54:22;;;;;;;4.13;2.22;;;;;;;6.15;100.00;97877.75;5098449;28;20393;-93
2022/11/20 04:56:49;;;;;;;3.97;2.63;;;;;;;6.26;100.00;97868.72;5085619;28;20044;-95
2022/11/20 04:59:15;;;;;;;3.67;2.50;;;;;;;6.44;100.00;97867.41;5084024;28;20045;-95
2022/11/20 05:01:41;;;;;;;5.63;3.22;;;;;;;6.45;100.00;97863.88;5083568;28;20501;-94
2022/11/20 05:04:07;;;;;;;4.45;2.90;;;;;;;6.52;100.00;97874.22;5083773;28;20069;-93
2022/11/20 05:06:33;;;;;;;4.82;3.10;;;;;;;6.63;100.00;97886.31;5084026;28;20135;-95
2022/11/20 05:09:00;;;;;;;5.15;3.33;;;;;;;6.73;100.00;97888.66;5083612;28;20040;-92
2022/11/20 05:11:29;;;;;;;5.97;2.90;;;;;;;6.64;100.00;97862.50;5083616;28;20041;-94
2022/11/20 05:13:55;;;;;;;4.95;3.15;;;;;;;6.66;100.00;97857.16;5084061;28;20141;-94
2022/11/20 05:16:23;;;;;;;3.80;2.58;;;;;;;6.75;100.00;97873.66;5083478;28;20413;-95
2022/11/20 05:18:50;;;;;;;6.18;2.50;;;;;;;6.68;100.00;97884.41;5083789;28;20045;-94
2022/11/20 05:21:16;;;;;;;3.80;2.58;;;;;;;6.57;100.00;97867.06;5083559;28;20055;-94
2022/11/20 05:23:43;;;;;;;3.40;2.40;;;;;;;6.57;100.00;97866.19;5083918;28;20057;-94
2022/11/20 05:26:15;;;;;;;4.97;2.33;;;;;;;6.63;100.00;97875.72;5083921;28;20047;-95
2022/11/20 05:28:42;;;;;;;3.90;2.35;;;;;;;6.57;100.00;97869.72;5090785;28;20060;-95
2022/11/20 05:31:10;;;;;;;3.72;2.30;;;;;;;6.55;100.00;97868.03;5082446;28;20048;-95
2022/11/20 05:33:39;;;;;;;3.03;2.20;;;;;;;6.67;100.00;97875.59;5083986;28;20045;-95
2022/11/20 05:36:06;;;;;;;3.93;2.53;;;;;;;6.64;100.00;97886.28;5083685;28;20502;-95
2022/11/20 05:38:32;;;;;;;4.68;3.00;;;;;;;6.64;100.00;97904.75;5083406;28;20041;-93
2022/11/20 05:41:04;;;;;;;4.65;2.92;;;;;;;6.60;100.00;97894.31;5082478;28;20101;-93
2022/11/20 05:43:32;;;;;;;3.55;2.30;;;;;;;6.52;100.00;97897.13;5081562;28;20051;-93
2022/11/20 05:46:00;;;;;;;4.00;2.42;;;;;;;6.56;100.00;97910.22;5081826;28;20044;-94
2022/11/20 05:48:26;;;;;;;4.30;2.60;;;;;;;6.47;100.00;97901.66;5082635;28;20051;-95
2022/11/20 05:50:52;;;;;;;4.32;2.38;;;;;;;6.29;100.00;97893.28;5081587;28;20045;-94
2022/11/20 05:53:18;;;;;;;3.08;2.17;;;;;;;6.28;100.00;97910.03;5081364;28;20047;-92
2022/11/20 05:55:44;;;;;;;4.57;2.38;;;;;;;6.23;100.00;97911.91;5081735;28;20040;-93
2022/11/20 05:58:09;;;;;;;4.45;2.25;;;;;;;6.14;100.00;97918.28;5082730;28;20045;-94
2022/11/20 06:00:36;;;;;;;6.13;2.60;;;;;;;6.24;100.00;97940.03;5081807;28;20379;-95
2022/11/20 06:03:03;;;;;;;4.05;2.58;;;;;;;5.97;100.00;97899.31;5082120;28;20060;-95
2022/11/20 06:05:29;;;;;;;3.28;2.30;;;;;;;5.98;100.00;97911.59;5082342;28;20060;-95
2022/11/20 06:07:55;;;;;;;3.63;2.38;;;;;;;6.03;100.00;97932.59;5081730;28;20517;-95
2022/11/20 06:10:21;;;;;;;4.13;2.35;;;;;;;5.95;100.00;97931.00;5082775;28;20505;-94
2022/11/20 06:12:47;;;;;;;4.20;2.35;;;;;;;5.98;100.00;97943.25;5083282;28;20045;-95
2022/11/20 06:15:12;;;;;;;3.28;2.20;;;;;;;5.76;100.00;97924.38;5082596;28;20044;-95
2022/11/20 06:17:38;;;;;;;3.67;1.98;;;;;;;5.82;100.00;97926.88;5082978;28;20117;-95
2022/11/20 06:20:07;;;;;;;3.80;2.08;;;;;;;6.02;100.00;97966.03;5082877;28;20041;-95
2022/11/20 06:22:33;;;;;;;4.22;2.13;;;;;;;5.99;100.00;97955.56;5082714;28;20049;-94
2022/11/20 06:24:59;;;;;;;4.05;2.40;;;;;;;6.01;100.00;97947.59;5082369;28;20051;-95
2022/11/20 06:27:25;;;;;;;2.75;2.10;;;;;;;6.07;100.00;97953.66;5082202;28;20384;-95
2022/11/20 06:29:51;;;;;;;2.95;1.92;;;;;;;6.25;100.00;97965.56;5082423;28;20052;-93
2022/11/20 06:32:17;;;;;;;4.85;2.22;;;;;;;6.27;100.00;97953.19;5083491;28;20197;-96
2022/11/20 06:34:43;;;;;;;3.53;1.90;;;;;;;6.47;100.00;97980.91;5083327;28;20111;-95
2022/11/20 06:37:10;;;;;;;3.95;2.10;;;;;;;6.45;100.00;97959.81;5082982;28;20179;-95
2022/11/20 06:39:36;;;;;;;3.40;2.30;;;;;;;6.54;100.00;97961.34;5082079;28;20048;-95
2022/11/20 06:42:02;;;;;;;4.53;2.40;;;;;;;6.68;100.00;97963.66;5081408;28;20426;-94
2022/11/20 06:44:28;;;;;;;3.70;2.42;;;;;;;6.76;100.00;97965.19;5082347;28;20055;-96
2022/11/20 06:46:54;;;;;;;3.75;2.40;;;;;;;6.89;100.00;97964.91;5082248;28;20044;-94
2022/11/20 06:49:20;;;;;;;4.32;2.20;;;;;;;7.13;100.00;98000.41;5081629;28;20040;-95
2022/11/20 06:51:46;;;;;;;5.00;2.80;;;;;;;7.16;100.00;97998.56;5082470;28;20108;-95
2022/11/20 06:54:14;;;;;;;4.72;2.70;;;;;;;7.15;100.00;97980.09;5082670;28;20051;-95
2022/11/20 06:56:40;;;;;;;4.63;2.58;;;;;;;7.28;100.00;97999.16;5082296;28;20066;-95
2022/11/20 06:59:06;;;;;;;7.53;4.90;;;;;;;7.26;100.00;97990.41;5081134;28;20053;-95
2022/11/20 07:01:32;;;;;;;6.80;4.75;;;;;;;7.36;100.00;97997.19;5081313;28;20044;-95
2022/11/20 07:03:58;;;;;;;5.63;4.05;;;;;;;7.40;100.00;98004.13;5081505;28;20090;-95
2022/11/20 07:06:24;;;;;;;5.93;3.35;;;;;;;7.41;100.00;98005.84;5081446;28;20498;-93
2022/11/20 07:08:52;;;;;;;5.45;3.15;;;;;;;7.43;100.00;98000.53;5081180;28;20055;-95
2022/11/20 07:11:19;;;;;;;4.10;2.83;;;;;;;7.48;100.00;98011.84;5082602;28;20101;-96
2022/11/20 07:13:47;;;;;;;3.45;2.22;;;;;;;7.44;100.00;98005.78;5082542;28;20048;-94
2022/11/20 07:16:13;;;;;;;3.97;2.20;;;;;;;7.46;100.00;98005.72;5082189;28;20049;-95
2022/11/20 07:18:39;;;;;;;4.78;2.20;;;;;;;7.51;100.00;98010.00;5082230;28;20040;-96
2022/11/20 07:21:08;;;;;;;2.85;2.00;;;;;;;7.56;100.00;98013.38;5083518;28;20041;-95
2022/11/20 07:23:34;;;;;;;4.00;2.30;;;;;;;7.56;100.00;98008.09;5086253;28;20143;-96
2022/11/20 07:26:03;;;;;;;3.55;2.30;;;;;;;7.65;100.00;98017.56;5083931;28;20139;-94
2022/11/20 07:28:36;;;;;;;4.13;2.38;;;;;;;7.87;100.00;98054.91;5084986;28;20048;-95
2022/11/20 07:31:02;;;;;;;4.95;2.58;;;;;;;7.80;100.00;98029.50;5084818;28;20045;-95
2022/11/20 07:33:28;;;;;;;8.50;3.20;;;;;;;7.75;100.00;98026.13;5084575;28;20437;-95
2022/11/20 07:35:55;;;;;;;9.38;5.15;;;;;;;7.70;100.00;98020.97;5084253;28;20036;-96
2022/11/20 07:38:21;;;;;;;8.82;6.03;;;;;;;7.69;100.00;98029.78;5085370;28;20071;-96
2022/11/20 07:40:47;;;;;;;11.07;7.80;;;;;;;7.66;100.00;98016.66;5085251;28;20530;-95
2022/11/20 07:43:14;;;;;;;11.27;7.38;;;;;;;7.71;100.00;98016.53;5085644;28;20064;-96
2022/11/20 07:45:42;;;;;;;12.52;8.00;;;;;;;7.84;100.00;98022.34;5085475;28;20478;-95
2022/11/20 07:48:08;;;;;;;12.63;8.32;;;;;;;7.97;100.00;98035.19;5085102;28;20102;-96
2022/11/20 07:50:34;;;;;;;12.27;7.18;;;;;;;7.97;100.00;98018.44;5084488;28;20053;-96
2022/11/20 07:53:02;;;;;;;9.45;6.40;;;;;;;8.08;100.00;98026.06;5086712;28;20130;-95
2022/11/20 07:55:28;;;;;;;10.05;6.68;;;;;;;8.15;100.00;98023.19;5086990;28;20075;-95
2022/11/20 07:57:55;;;;;;;7.50;5.82;;;;;;;8.42;100.00;98055.97;5087590;28;20051;-96
2022/11/20 08:00:22;;;;;;;8.63;6.30;;;;;;;8.34;100.00;98028.81;5086694;28;20055;-96
2022/11/20 08:02:50;;;;;;;10.60;7.13;;;;;;;8.41;100.00;98026.88;5087255;28;20044;-96
2022/11/20 08:05:16;;;;;;;15.35;9.32;;;;;;;8.54;100.00;98024.72;5087315;28;20074;-96
2022/11/20 08:07:44;;;;;;;12.73;8.30;;;;;;;8.69;100.00;98032.19;5089432;28;20139;-96
2022/11/20 08:10:15;;;;;;;12.88;8.68;;;;;;;8.97;100.00;98077.25;5091211;28;20115;-96
2022/11/20 08:17:11;;;;;;;11.32;6.90;;;;;;;9.05;100.00;98053.16;5096026;28;20068;-96
2022/11/20 08:19:42;;;;;;;8.95;6.22;;;;;;;9.17;100.00;98063.38;5633381;22;20054;-96
2022/11/20 08:22:11;;;;;;;6.78;5.40;;;;;;;9.15;100.00;98054.59;5028764;28;20404;-96
2022/11/20 08:24:43;;;;;;;6.20;5.00;;;;;;;9.13;100.00;98056.44;5029831;28;20041;-95
2022/11/20 08:27:16;;;;;;;7.20;5.28;;;;;;;9.36;100.00;98099.91;5030045;28;20053;-96
2022/11/20 08:29:42;;;;;;;10.05;6.53;;;;;;;9.21;100.00;98069.44;5026826;28;20046;-95
2022/11/20 08:32:21;;;;;;;12.48;7.93;;;;;;;9.22;100.00;98060.56;5031813;28;20046;-96
2022/11/20 08:34:49;;;;;;;8.95;6.35;;;;;;;9.29;100.00;98061.25;5032023;28;20108;-95
2022/11/20 08:37:15;;;;;;;12.02;8.25;;;;;;;9.13;100.00;98061.75;5031438;28;20117;-96
2022/11/20 08:39:41;;;;;;;16.70;9.43;;;;;;;9.07;100.00;98063.72;5032351;28;20053;-96
2022/11/20 08:42:12;;;;;;;13.23;8.93;;;;;;;9.13;100.00;98064.41;5033491;28;20046;-95
2022/11/20 08:44:39;;;;;;;12.77;8.88;;;;;;;9.62;100.00;98105.19;5035073;28;20049;-96
2022/11/20 08:47:05;;;;;;;14.25;9.63;;;;;;;9.47;100.00;98079.19;5036209;28;20030;-93
2022/11/20 08:49:32;;;;;;;11.50;7.78;;;;;;;9.30;100.00;98063.81;5030263;28;20041;-96
2022/11/20 08:51:59;;;;;;;12.15;8.00;;;;;;;9.28;100.00;98067.44;5030342;28;20058;-96
2022/11/20 08:54:31;;;;;;;10.98;7.82;;;;;;;9.52;100.00;98103.81;5036377;28;20463;-96
2022/11/20 08:57:15;;;;;;;11.52;7.88;;;;;;;9.47;100.00;98073.88;5053019;28;20117;-96
2022/11/20 08:59:49;;;;;;;11.27;7.60;;;;;;;9.61;100.00;98076.94;5037097;28;20041;-95
2022/11/20 09:02:16;;;;;;;9.38;7.40;;;;;;;9.72;100.00;98078.38;5033078;28;20049;-95
2022/11/20 09:04:42;;;;;;;12.02;7.72;;;;;;;9.80;100.00;98076.28;5031765;28;20042;-94
2022/11/20 09:07:13;;;;;;;10.27;6.10;;;;;;;10.02;100.00;98102.97;5034751;28;20053;-95
2022/11/20 09:09:43;;;;;;;9.98;6.80;;;;;;;9.99;100.00;98074.72;5030323;28;20121;-94
2022/11/20 09:12:12;;;;;;;6.30;4.13;;;;;;;10.31;100.00;98093.13;5041213;28;20071;-95
2022/11/20 09:14:40;;;;;;;5.57;3.55;;;;;;;10.84;100.00;98112.38;5051904;28;20115;-95
2022/11/20 09:17:13;;;;;;;5.32;3.22;;;;;;;11.02;98.09;98073.53;5051909;28;20054;-96
2022/11/20 09:19:41;;;;;;;3.72;2.40;;;;;;;11.41;87.12;98082.63;5050300;28;20030;-95
2022/11/20 09:22:08;;;;;;;5.25;2.60;;;;;;;11.58;86.71;98093.44;5050579;28;20050;-95
2022/11/20 09:24:42;;;;;;;4.10;2.40;;;;;;;12.00;83.50;98097.88;5050100;28;20061;-96
2022/11/20 09:27:09;;;;;;;5.85;2.90;;;;;;;11.82;81.66;98082.63;5047041;28;20109;-96
2022/11/20 09:29:35;;;;;;;3.80;2.50;;;;;;;11.98;82.97;98122.84;5047751;28;20118;-96
2022/11/20 09:32:01;;;;;;;7.00;2.42;;;;;;;11.82;79.37;98094.19;5045769;28;20045;-96
2022/11/20 09:34:28;;;;;;;2.72;2.08;;;;;;;12.00;82.23;98081.88;5045822;28;20048;-96
2022/11/20 09:36:54;;;;;;;4.15;2.30;;;;;;;12.02;80.94;98087.16;5044280;28;20045;-95
2022/11/20 09:39:23;;;;;;;;;;;;;;;12.45;77.50;98117.25;5043176;28;20112;-94
2022/11/20 09:42:17;;;;;;;3.15;2.13;;;;;;;12.27;78.84;98110.91;5058450;28;19920;-95
2022/11/20 09:44:56;;;;;;;3.85;2.15;;;;;;;11.71;79.41;98077.78;5042002;28;20045;-95
2022/11/20 09:47:31;;;;;;;3.25;1.95;;;;;;;12.20;79.38;98090.78;5041112;28;20085;-94
2022/11/20 09:50:14;;;;;;;2.70;1.85;;;;;;;12.33;74.66;98062.66;5041170;28;20041;-95
2022/11/20 09:52:51;;;;;;;2.67;2.05;;;;;;;12.38;74.92;98086.44;5058223;28;20050;-95
2022/11/20 09:55:18;;;;;;;2.95;2.10;;;;;;;12.34;72.64;98080.41;5039838;28;20056;-93
2022/11/20 09:57:50;;;;;;;2.55;2.00;;;;;;;12.33;74.14;98078.66;5031043;28;20381;-93
2022/11/20 10:00:19;;;;;;;2.05;1.80;;;;;;;12.20;73.60;98074.81;5021000;28;20049;-95
2022/11/20 10:02:51;;;;;;;2.40;1.90;;;;;;;12.07;74.71;98064.69;5021122;28;20046;-95
2022/11/20 10:05:21;;;;;;;2.63;2.15;;;;;;;12.10;71.96;98061.91;5023796;28;20092;-94
2022/11/20 10:07:55;;;;;;;2.83;2.05;;;;;;;11.87;74.99;98083.31;5024514;28;20508;-94
2022/11/20 10:10:30;;;;;;;2.85;2.00;;;;;;;11.88;72.96;98048.66;5024536;28;20071;-95
2022/11/20 10:13:17;;;;;;;3.13;2.00;;;;;;;11.77;74.47;98082.84;5039060;28;20041;-95
2022/11/20 10:15:55;;;;;;;3.05;1.88;;;;;;;11.49;72.98;98056.50;5013149;28;20049;-95
2022/11/20 10:18:34;;;;;;;2.30;1.93;;;;;;;11.37;76.13;98054.38;5023670;28;20132;-94
2022/11/20 10:21:11;;;;;;;2.75;1.95;;;;;;;11.59;73.45;98079.16;5021777;28;20049;-93
2022/11/20 10:23:59;;;;;;;2.55;1.80;;;;;;;11.48;72.87;98050.31;5024084;28;20133;-95
2022/11/20 10:26:35;;;;;;;3.92;2.00;;;;;;;11.68;73.77;98086.75;5023178;28;20054;-95
2022/11/20 10:29:12;;;;;;;3.78;2.00;;;;;;;11.57;72.46;98057.06;5031311;28;20046;-92
2022/11/20 10:31:40;;;;;;;3.13;1.85;;;;;;;11.68;73.96;98053.94;5026577;28;20046;-94
2022/11/20 10:34:18;;;;;;;2.90;2.20;;;;;;;11.73;72.53;98059.91;5030534;28;20033;-93
2022/11/20 10:36:49;;;;;;;3.60;2.03;;;;;;;11.80;74.70;98044.56;5028312;28;20046;-94
2022/11/20 10:39:22;;;;;;;3.22;1.98;;;;;;;11.71;70.69;98024.53;5042456;28;20049;-94
2022/11/20 10:41:52;;;;;;;2.15;1.90;;;;;;;11.88;67.43;98067.31;5032612;28;20507;-95
2022/11/20 10:47:37;;;;;;;2.50;1.95;;;;;;;12.18;64.12;98056.19;5112500;27;20173;-94
2022/11/20 10:50:09;;;;;;;2.25;1.77;;;;;;;12.28;65.01;98033.53;5092336;28;20032;-95
2022/11/20 10:52:46;;;;;;;4.43;2.00;;;;;;;12.28;69.13;98030.00;5089129;28;20045;-95
2022/11/20 10:55:25;;;;;;;3.38;1.98;;;;;;;12.69;66.45;98035.22;5060929;28;20037;-94
2022/11/20 10:57:54;;;;;;;;;;;;;;;12.78;68.25;98048.13;5062766;28;20048;-95
2022/11/20 11:00:21;;;;;;;2.25;1.88;;;;;;;12.70;69.21;98024.44;5061594;28;19925;-96
2022/11/20 11:02:50;;;;;;;2.97;1.92;;;;;;;12.68;66.05;98006.81;5062044;28;20052;-96
2022/11/20 11:05:36;;;;;;;2.58;1.90;;;;;;;12.87;65.03;98022.78;5061341;28;20042;-95
2022/11/20 11:08:04;;;;;;;2.58;2.20;;;;;;;12.54;64.78;98008.31;5062420;28;20491;-95
2022/11/20 11:10:41;;;;;;;2.70;1.88;;;;;;;12.86;66.45;98026.38;5095072;28;20052;-95
2022/11/20 11:13:18;;;;;;;3.55;2.10;;;;;;;12.98;63.46;98014.28;5098771;28;20048;-96
2022/11/20 11:15:44;;;;;;;2.22;1.80;;;;;;;12.98;63.49;97995.59;5078971;28;20045;-94
2022/11/20 11:18:23;;;;;;;11.05;7.88;;;;;;;12.84;66.18;97997.13;5080671;28;20063;-95
2022/11/20 11:20:51;;;;;;;3.03;2.00;;;;;;;12.49;65.26;97989.03;5077894;28;20069;-96
2022/11/20 11:23:30;;;;;;;3.03;1.90;;;;;;;12.28;64.35;97980.22;5080650;28;20071;-95
2022/11/20 11:25:58;;;;;;;3.03;1.92;;;;;;;12.05;65.64;97985.75;5078592;28;20136;-95
2022/11/20 11:28:27;;;;;;;3.45;2.17;;;;;;;12.23;65.67;97994.69;5083885;28;20045;-95
2022/11/20 11:30:54;;;;;;;2.22;1.80;;;;;;;11.90;64.36;97972.16;5080295;28;20045;-95
2022/11/20 11:33:24;;;;;;;4.00;2.10;;;;;;;11.94;65.09;97980.91;5084762;28;20045;-95
2022/11/20 11:35:52;;;;;;;2.53;2.00;;;;;;;12.12;67.20;97988.06;5082195;28;20049;-94
2022/11/20 11:38:23;;;;;;;2.42;1.90;;;;;;;12.19;64.65;97991.31;5094609;28;20044;-94
2022/11/20 11:40:53;;;;;;;2.38;1.80;;;;;;;12.32;63.31;97995.13;5115262;28;20045;-96
2022/11/20 11:56:50;;;;;;;4.30;2.53;;;;;;;11.86;62.97;98010.53;6303012;22;20132;-94
2022/11/20 11:59:27;;;;;;;4.78;2.72;;;;;;;11.98;63.92;98014.47;6272304;22;20011;-95
2022/11/20 12:02:03;;;;;;;4.10;2.70;;;;;;;12.02;68.82;98025.88;6274089;22;20016;-96
2022/11/20 12:04:43;;;;;;;4.20;2.90;;;;;;;11.90;61.99;98016.59;6244459;23;20449;-96
2022/11/20 12:07:16;;;;;;;2.05;1.75;;;;;;;11.86;63.11;98017.63;6269435;23;20496;-95